createdAt,value
2023-04-20T00:01:15.652Z,17.60
2023-04-20T00:03:42.726Z,17.60
2023-04-20T00:06:09.679Z,17.60
2023-04-20T00:08:36.605Z,17.60
2023-04-20T00:11:03.837Z,17.50
2023-04-20T00:13:30.978Z,17.60
2023-04-20T00:15:57.920Z,17.60
2023-04-20T00:18:24.828Z,17.50
2023-04-20T00:20:51.752Z,17.50
2023-04-20T00:23:18.722Z,17.50
2023-04-20T00:25:45.648Z,17.40
2023-04-20T00:28:12.562Z,17.50
2023-04-20T00:30:41.143Z,17.40
2023-04-20T00:33:08.305Z,17.50
2023-04-20T00:35:35.449Z,17.50
2023-04-20T00:38:02.390Z,17.50
2023-04-20T00:40:29.948Z,17.40
2023-04-20T00:42:57.220Z,17.40
2023-04-20T00:45:24.301Z,17.40
2023-04-20T00:47:51.753Z,17.40
2023-04-20T00:50:18.919Z,17.30
2023-04-20T00:52:46.836Z,17.30
2023-04-20T00:55:13.956Z,17.30
2023-04-20T00:57:41.622Z,17.20
2023-04-20T01:00:09.662Z,17.20
2023-04-20T01:02:37.966Z,17.20
2023-04-20T01:05:08.398Z,17.20
2023-04-20T01:07:35.387Z,17.20
2023-04-20T01:10:02.633Z,17.10
2023-04-20T01:12:30.628Z,17.10
2023-04-20T01:14:57.647Z,17.10
2023-04-20T01:17:24.641Z,17.10
2023-04-20T01:19:51.691Z,17.10
2023-04-20T01:22:21.974Z,17.10
2023-04-20T01:24:49.001Z,17.10
2023-04-20T01:27:17.155Z,17.10
2023-04-20T01:29:44.725Z,17.10
2023-04-20T01:32:12.170Z,17.10
2023-04-20T01:34:40.886Z,17.10
2023-04-20T01:37:09.023Z,17.00
2023-04-20T01:39:37.759Z,17.00
2023-04-20T01:42:05.780Z,17.00
2023-04-20T01:44:32.748Z,17.00
2023-04-20T01:46:59.972Z,17.00
2023-04-20T01:49:27.120Z,17.00
2023-04-20T01:51:54.258Z,17.00
2023-04-20T01:54:21.923Z,17.00
2023-04-20T01:56:48.914Z,16.90
2023-04-20T01:59:16.224Z,16.90
2023-04-20T02:01:43.404Z,16.90
2023-04-20T02:04:10.669Z,16.90
2023-04-20T02:06:40.893Z,16.90
2023-04-20T02:09:10.169Z,16.90
2023-04-20T02:11:37.114Z,16.90
2023-04-20T02:14:06.344Z,16.90
2023-04-20T02:16:35.511Z,16.90
2023-04-20T02:19:03.520Z,16.90
2023-04-20T02:21:31.459Z,16.80
2023-04-20T02:23:58.393Z,16.80
2023-04-20T02:26:27.419Z,16.90
2023-04-20T02:28:54.453Z,16.90
2023-04-20T02:31:21.452Z,16.90
2023-04-20T02:33:49.990Z,16.90
2023-04-20T02:36:16.995Z,16.90
2023-04-20T02:38:44.095Z,16.90
2023-04-20T02:41:11.009Z,16.90
2023-04-20T02:43:38.040Z,16.90
2023-04-20T02:46:05.390Z,16.90
2023-04-20T02:48:32.445Z,16.80
2023-04-20T02:51:00.046Z,16.80
2023-04-20T02:53:32.005Z,16.80
2023-04-20T02:56:12.040Z,16.80
2023-04-20T02:58:43.822Z,16.80
2023-04-20T03:01:37.305Z,16.80
2023-04-20T03:04:25.954Z,16.80
2023-04-20T03:07:00.422Z,16.80
2023-04-20T03:09:30.051Z,16.80
2023-04-20T03:12:13.329Z,16.80
2023-04-20T03:15:07.304Z,16.80
2023-04-20T03:18:00.298Z,16.80
2023-04-20T03:20:27.671Z,16.80
2023-04-20T03:22:54.681Z,16.80
2023-04-20T03:25:24.584Z,16.80
2023-04-20T03:28:06.181Z,16.70
2023-04-20T03:30:33.571Z,16.80
2023-04-20T03:33:05.774Z,16.70
2023-04-20T03:35:32.816Z,16.80
2023-04-20T03:38:00.063Z,16.70
2023-04-20T03:40:27.223Z,16.70
2023-04-20T03:42:54.221Z,16.70
2023-04-20T03:45:21.215Z,16.70
2023-04-20T03:47:49.557Z,16.60
2023-04-20T03:50:16.566Z,16.60
2023-04-20T03:52:43.473Z,16.60
2023-04-20T03:55:11.727Z,16.70
2023-04-20T03:57:45.681Z,16.70
2023-04-20T04:00:14.180Z,16.60
2023-04-20T04:02:47.242Z,16.60
2023-04-20T04:05:19.700Z,16.60
2023-04-20T04:07:49.532Z,16.60
2023-04-20T04:10:18.882Z,16.50
2023-04-20T04:12:46.295Z,16.50
2023-04-20T04:15:13.595Z,16.50
2023-04-20T04:17:49.081Z,16.50
2023-04-20T04:20:16.223Z,16.50
2023-04-20T04:22:46.659Z,16.50
2023-04-20T04:25:42.277Z,16.50
2023-04-20T04:28:11.816Z,16.50
2023-04-20T04:30:47.715Z,16.50
2023-04-20T04:33:15.052Z,16.50
2023-04-20T04:35:45.608Z,16.50
2023-04-20T04:38:14.085Z,16.50
2023-04-20T04:40:45.904Z,16.50
2023-04-20T04:43:13.412Z,16.50
2023-04-20T04:45:49.885Z,16.40
2023-04-20T04:48:19.014Z,16.40
2023-04-20T04:50:46.716Z,16.40
2023-04-20T04:53:13.729Z,16.30
2023-04-20T04:55:40.657Z,16.40
2023-04-20T04:58:07.556Z,16.30
2023-04-20T05:00:34.558Z,16.30
2023-04-20T05:03:01.647Z,16.30
2023-04-20T05:05:28.810Z,16.30
2023-04-20T05:07:55.872Z,16.30
2023-04-20T05:10:22.896Z,16.40
2023-04-20T05:12:49.867Z,16.40
2023-04-20T05:15:17.956Z,16.30
2023-04-20T05:17:45.277Z,16.30
2023-04-20T05:20:12.432Z,16.40
2023-04-20T05:22:39.419Z,16.30
2023-04-20T05:25:06.888Z,16.40
2023-04-20T05:27:34.246Z,16.40
2023-04-20T05:30:13.133Z,16.40
2023-04-20T05:32:44.011Z,16.30
2023-04-20T05:35:11.053Z,16.40
2023-04-20T05:37:37.994Z,16.30
2023-04-20T05:40:05.557Z,16.30
2023-04-20T05:42:32.549Z,16.30
2023-04-20T05:44:59.510Z,16.30
2023-04-20T05:47:27.547Z,16.40
2023-04-20T05:49:54.586Z,16.40
2023-04-20T05:52:21.573Z,16.40
2023-04-20T05:54:49.766Z,16.40
2023-04-20T05:57:16.772Z,16.40
2023-04-20T05:59:44.170Z,16.40
2023-04-20T06:02:11.216Z,16.50
2023-04-20T06:04:38.359Z,16.50
2023-04-20T06:07:05.483Z,16.50
2023-04-20T06:09:32.455Z,16.50
2023-04-20T06:12:00.747Z,16.50
2023-04-20T06:14:27.758Z,16.60
2023-04-20T06:16:54.712Z,16.60
2023-04-20T06:19:21.704Z,16.70
2023-04-20T06:21:48.692Z,16.70
2023-04-20T06:24:15.743Z,16.70
2023-04-20T06:26:42.709Z,16.70
2023-04-20T06:29:09.618Z,16.70
2023-04-20T06:31:36.649Z,16.70
2023-04-20T06:34:03.573Z,16.70
2023-04-20T06:36:31.214Z,16.80
2023-04-20T06:38:58.163Z,16.80
2023-04-20T06:41:25.268Z,16.80
2023-04-20T06:43:52.180Z,16.80
2023-04-20T06:46:19.206Z,16.90
2023-04-20T06:48:46.243Z,16.90
2023-04-20T06:51:14.217Z,16.90
2023-04-20T06:53:41.159Z,16.80
2023-04-20T06:56:08.352Z,16.80
2023-04-20T06:58:35.406Z,16.80
2023-04-20T07:01:02.556Z,16.80
2023-04-20T07:03:29.599Z,16.90
2023-04-20T07:05:56.597Z,16.90
2023-04-20T07:08:23.564Z,16.90
2023-04-20T07:10:50.601Z,16.90
2023-04-20T07:13:17.562Z,16.90
2023-04-20T07:15:45.892Z,16.90
2023-04-20T07:18:12.923Z,16.90
2023-04-20T07:20:39.999Z,16.90
2023-04-20T07:23:06.948Z,16.90
2023-04-20T07:25:33.942Z,16.80
2023-04-20T07:28:00.960Z,16.80
2023-04-20T07:30:28.010Z,16.80
2023-04-20T07:32:55.000Z,16.80
2023-04-20T07:35:22.243Z,16.70
2023-04-20T07:37:49.165Z,16.70
2023-04-20T07:40:17.107Z,16.70
2023-04-20T07:42:44.080Z,16.60
2023-04-20T07:45:12.404Z,16.60
2023-04-20T07:47:39.398Z,16.60
2023-04-20T07:50:07.949Z,16.60
2023-04-20T07:52:35.793Z,16.60
2023-04-20T07:55:03.112Z,16.60
2023-04-20T07:57:31.632Z,16.50
2023-04-20T07:59:58.730Z,16.50
2023-04-20T08:02:25.916Z,16.50
2023-04-20T08:04:53.206Z,16.50
2023-04-20T08:07:20.812Z,16.50
2023-04-20T08:09:47.763Z,16.50
2023-04-20T08:12:14.784Z,16.50
2023-04-20T08:14:41.697Z,16.50
2023-04-20T08:17:08.653Z,16.50
2023-04-20T08:19:36.238Z,16.50
2023-04-20T08:22:05.480Z,16.50
2023-04-20T08:24:32.484Z,16.40
2023-04-20T08:26:59.521Z,16.40
2023-04-20T08:29:26.581Z,16.40
2023-04-20T08:31:53.760Z,16.40
2023-04-20T08:34:20.770Z,16.30
2023-04-20T08:36:48.543Z,16.30
2023-04-20T08:39:21.798Z,16.30
2023-04-20T08:41:53.695Z,16.30
2023-04-20T08:44:20.883Z,16.30
2023-04-20T08:46:49.044Z,16.30
2023-04-20T08:49:17.715Z,16.20
2023-04-20T08:51:46.079Z,16.20
2023-04-20T08:54:14.095Z,16.20
2023-04-20T08:56:44.138Z,16.20
2023-04-20T08:59:14.078Z,16.20
2023-04-20T09:01:43.125Z,16.10
2023-04-20T09:04:24.252Z,16.10
2023-04-20T09:06:54.225Z,16.00
2023-04-20T09:09:22.903Z,16.00
2023-04-20T09:12:02.448Z,16.00
2023-04-20T09:14:29.672Z,16.00
2023-04-20T09:17:02.376Z,15.90
2023-04-20T09:19:31.099Z,16.00
2023-04-20T09:21:59.867Z,16.00
2023-04-20T09:24:37.828Z,16.00
2023-04-20T09:27:18.973Z,16.00
2023-04-20T09:30:01.096Z,16.00
2023-04-20T09:32:29.094Z,16.00
2023-04-20T09:34:57.016Z,16.00
2023-04-20T09:37:25.527Z,16.00
2023-04-20T09:39:59.557Z,16.00
2023-04-20T09:42:28.529Z,16.00
2023-04-20T09:44:56.052Z,16.00
2023-04-20T09:47:25.912Z,16.00
2023-04-20T09:49:54.334Z,16.00
2023-04-20T09:52:22.680Z,16.00
2023-04-20T09:54:51.556Z,16.00
2023-04-20T09:57:19.692Z,16.00
2023-04-20T09:59:47.443Z,16.00
2023-04-20T10:02:14.921Z,16.00
2023-04-20T10:04:54.380Z,16.10
2023-04-20T10:07:29.936Z,16.10
2023-04-20T10:10:06.417Z,16.10
2023-04-20T10:12:36.548Z,16.10
2023-04-20T10:15:04.371Z,16.00
2023-04-20T10:17:32.683Z,16.10
2023-04-20T10:19:59.859Z,16.00
2023-04-20T10:22:33.061Z,16.00
2023-04-20T10:25:01.322Z,16.00
2023-04-20T10:27:28.917Z,16.00
2023-04-20T10:29:55.944Z,16.00
2023-04-20T10:32:28.132Z,16.00
2023-04-20T10:35:10.519Z,16.00
2023-04-20T10:37:51.121Z,16.00
2023-04-20T10:40:28.090Z,16.00
2023-04-20T10:42:55.069Z,16.00
2023-04-20T10:45:33.625Z,16.00
2023-04-20T10:48:09.853Z,16.00
2023-04-20T10:50:37.057Z,15.90
2023-04-20T10:53:05.389Z,16.00
2023-04-20T10:55:32.382Z,16.00
2023-04-20T10:57:59.281Z,16.00
2023-04-20T11:00:28.188Z,16.00
2023-04-20T11:02:57.248Z,16.00
2023-04-20T11:05:27.524Z,16.10
2023-04-20T11:07:56.225Z,16.10
2023-04-20T11:10:25.835Z,16.10
2023-04-20T11:12:53.214Z,16.10
2023-04-20T11:15:30.585Z,16.10
2023-04-20T11:18:07.218Z,16.10
2023-04-20T11:20:34.432Z,16.10
2023-04-20T11:23:01.402Z,16.10
2023-04-20T11:25:28.434Z,16.10
2023-04-20T11:28:06.444Z,16.10
2023-04-20T11:30:41.727Z,16.10
2023-04-20T11:33:10.452Z,16.10
2023-04-20T11:35:38.896Z,16.10
2023-04-20T11:38:06.139Z,16.00
2023-04-20T11:40:33.388Z,16.00
2023-04-20T11:43:00.714Z,16.00
2023-04-20T11:45:31.126Z,16.00
2023-04-20T11:47:58.298Z,16.00
2023-04-20T11:50:25.741Z,16.00
2023-04-20T11:52:52.775Z,16.00
2023-04-20T11:55:19.878Z,15.90
2023-04-20T11:57:46.836Z,15.90
2023-04-20T12:00:15.150Z,15.90
2023-04-20T12:02:42.376Z,15.90
2023-04-20T12:05:09.752Z,15.90
2023-04-20T12:07:36.893Z,15.90
2023-04-20T12:10:05.058Z,15.90
2023-04-20T12:12:32.105Z,15.90
2023-04-20T12:14:59.037Z,15.90
2023-04-20T12:17:26.450Z,15.80
2023-04-20T12:19:53.375Z,15.90
2023-04-20T12:22:20.335Z,15.90
2023-04-20T12:24:47.250Z,15.90
2023-04-20T12:27:14.147Z,15.80
2023-04-20T12:29:41.092Z,15.80
2023-04-20T12:32:08.029Z,15.80
2023-04-20T12:34:34.933Z,15.80
2023-04-20T12:37:02.182Z,15.80
2023-04-20T12:39:29.171Z,15.80
2023-04-20T12:41:58.096Z,15.70
2023-04-20T12:44:25.020Z,15.70
2023-04-20T12:46:52.293Z,15.70
2023-04-20T12:49:19.594Z,15.70
2023-04-20T12:51:46.781Z,15.70
2023-04-20T12:54:13.759Z,15.70
2023-04-20T12:56:40.686Z,15.70
2023-04-20T12:59:07.623Z,15.70
2023-04-20T13:01:34.847Z,15.70
2023-04-20T13:04:02.164Z,15.70
2023-04-20T13:06:29.262Z,15.70
2023-04-20T13:08:56.243Z,15.70
2023-04-20T13:11:23.899Z,15.80
2023-04-20T13:13:51.820Z,15.80
2023-04-20T13:16:18.781Z,15.80
2023-04-20T13:18:45.875Z,15.80
2023-04-20T13:21:12.825Z,15.90
2023-04-20T13:23:40.110Z,15.90
2023-04-20T13:26:07.580Z,15.90
2023-04-20T13:28:34.761Z,16.00
2023-04-20T13:31:01.791Z,16.00
2023-04-20T13:33:28.761Z,16.00
2023-04-20T13:35:55.740Z,16.00
2023-04-20T13:38:22.682Z,16.00
2023-04-20T13:40:49.638Z,16.10
2023-04-20T13:43:16.737Z,16.10
2023-04-20T13:45:43.694Z,16.20
2023-04-20T13:48:10.687Z,16.10
2023-04-20T13:50:37.823Z,16.10
2023-04-20T13:53:04.731Z,16.10
2023-04-20T13:55:32.013Z,16.10
2023-04-20T13:57:59.011Z,16.10
2023-04-20T14:00:26.252Z,16.10
2023-04-20T14:02:53.453Z,16.10
2023-04-20T14:05:20.728Z,16.10
2023-04-20T14:07:47.734Z,16.10
2023-04-20T14:10:15.254Z,16.10
2023-04-20T14:12:42.269Z,16.10
2023-04-20T14:15:09.659Z,16.10
2023-04-20T14:17:36.700Z,16.00
2023-04-20T14:20:04.178Z,16.00
2023-04-20T14:22:36.043Z,16.00
2023-04-20T14:25:04.922Z,16.00
2023-04-20T14:27:32.367Z,16.00
2023-04-20T14:29:59.373Z,16.10
2023-04-20T14:32:26.279Z,16.00
2023-04-20T14:34:53.319Z,16.00
2023-04-20T14:37:20.272Z,16.00
2023-04-20T14:39:49.520Z,16.00
2023-04-20T14:42:16.558Z,15.90
2023-04-20T14:44:43.468Z,15.90
2023-04-20T14:47:10.447Z,15.90
2023-04-20T14:49:37.413Z,15.90
2023-04-20T14:52:04.628Z,15.90
2023-04-20T14:54:31.607Z,15.90
2023-04-20T14:56:58.612Z,15.90
2023-04-20T14:59:27.006Z,15.90
2023-04-20T15:02:02.390Z,16.00
2023-04-20T15:04:31.070Z,15.90
2023-04-20T15:06:58.322Z,15.90
2023-04-20T15:09:25.472Z,15.90
2023-04-20T15:11:52.440Z,15.90
2023-04-20T15:14:20.377Z,15.90
2023-04-20T15:16:47.564Z,15.90
2023-04-20T15:19:14.551Z,15.80
2023-04-20T15:21:42.790Z,15.80
2023-04-20T15:24:11.549Z,15.80
2023-04-20T15:26:38.502Z,15.80
2023-04-20T15:29:05.562Z,15.80
2023-04-20T15:31:32.621Z,15.80
2023-04-20T15:34:00.238Z,15.90
2023-04-20T15:36:27.540Z,15.90
2023-04-20T15:38:56.989Z,15.90
2023-04-20T15:41:24.819Z,15.90
2023-04-20T15:43:51.862Z,15.90
2023-04-20T15:46:23.274Z,15.80
2023-04-20T15:48:50.414Z,15.90
2023-04-20T15:51:20.100Z,15.80
2023-04-20T15:53:50.874Z,15.80
2023-04-20T15:56:22.577Z,15.80
2023-04-20T15:58:52.824Z,15.80
2023-04-20T16:01:20.032Z,15.80
2023-04-20T16:03:48.312Z,15.80
2023-04-20T16:06:15.808Z,15.90
2023-04-20T16:08:42.805Z,15.90
2023-04-20T16:11:09.731Z,15.90
2023-04-20T16:13:36.894Z,15.90
2023-04-20T16:16:04.187Z,15.90
2023-04-20T16:18:32.286Z,15.90
2023-04-20T16:20:59.351Z,15.90
2023-04-20T16:23:26.449Z,15.90
2023-04-20T16:25:53.450Z,15.90
2023-04-20T16:28:20.497Z,15.90
2023-04-20T16:30:47.423Z,15.90
2023-04-20T16:33:14.902Z,15.90
2023-04-20T16:35:41.871Z,15.90
2023-04-20T16:38:10.723Z,15.90
2023-04-20T16:40:37.885Z,15.90
2023-04-20T16:43:04.940Z,15.80
2023-04-20T16:45:33.237Z,15.80
2023-04-20T16:48:00.696Z,15.70
2023-04-20T16:50:28.130Z,15.70
2023-04-20T16:52:55.188Z,15.70
2023-04-20T16:55:22.174Z,15.70
2023-04-20T16:57:49.275Z,15.70
2023-04-20T17:00:16.782Z,15.70
2023-04-20T17:02:43.944Z,15.60
2023-04-20T17:05:11.122Z,15.60
2023-04-20T17:07:38.164Z,15.50
2023-04-20T17:10:06.193Z,15.50
2023-04-20T17:12:33.192Z,15.50
2023-04-20T17:15:00.722Z,15.50
2023-04-20T17:17:28.298Z,15.50
2023-04-20T17:19:55.481Z,15.50
2023-04-20T17:22:22.546Z,15.50
2023-04-20T17:24:49.618Z,15.40
2023-04-20T17:27:16.586Z,15.20
2023-04-20T17:29:44.813Z,15.10
2023-04-20T17:32:12.206Z,15.00
2023-04-20T17:34:40.042Z,14.80
2023-04-20T17:37:07.267Z,14.60
2023-04-20T17:39:34.290Z,14.50
2023-04-20T17:42:01.604Z,14.40
2023-04-20T17:44:28.532Z,14.20
2023-04-20T17:46:55.818Z,13.90
2023-04-20T17:49:22.767Z,13.60
2023-04-20T17:51:49.736Z,13.50
2023-04-20T17:54:16.982Z,13.40
2023-04-20T17:56:44.254Z,13.40
2023-04-20T17:59:12.225Z,13.40
2023-04-20T18:01:39.465Z,13.30
2023-04-20T18:04:06.870Z,13.30
2023-04-20T18:06:34.361Z,13.40
2023-04-20T18:09:01.550Z,13.40
2023-04-20T18:11:28.515Z,13.40
2023-04-20T18:13:57.756Z,13.40
2023-04-20T18:16:24.802Z,13.50
2023-04-20T18:18:52.581Z,13.50
2023-04-20T18:21:19.493Z,13.60
2023-04-20T18:23:49.114Z,13.60
2023-04-20T18:26:17.725Z,13.70
2023-04-20T18:28:45.360Z,13.70
2023-04-20T18:31:12.972Z,13.70
2023-04-20T18:33:40.148Z,13.70
2023-04-20T18:36:07.532Z,13.80
2023-04-20T18:38:35.277Z,13.80
2023-04-20T18:41:02.407Z,13.80
2023-04-20T18:43:29.332Z,13.80
2023-04-20T18:45:56.720Z,13.80
2023-04-20T18:48:23.609Z,13.80
2023-04-20T18:50:51.050Z,13.90
2023-04-20T18:53:18.060Z,13.90
2023-04-20T18:55:44.968Z,13.90
2023-04-20T18:58:11.949Z,13.90
2023-04-20T19:00:38.938Z,13.90
2023-04-20T19:03:06.238Z,13.90
2023-04-20T19:05:33.499Z,13.90
2023-04-20T19:08:00.538Z,13.90
2023-04-20T19:10:27.558Z,13.90
2023-04-20T19:12:55.766Z,13.90
2023-04-20T19:15:25.679Z,14.00
2023-04-20T19:17:56.436Z,14.00
2023-04-20T19:20:24.713Z,14.00
2023-04-20T19:22:51.897Z,14.00
2023-04-20T19:25:20.329Z,14.10
2023-04-20T19:27:47.392Z,14.10
2023-04-20T19:30:14.532Z,14.10
2023-04-20T19:32:41.529Z,14.10
2023-04-20T19:35:08.545Z,14.20
2023-04-20T19:37:35.553Z,14.10
2023-04-20T19:40:04.511Z,14.10
2023-04-20T19:42:31.721Z,14.10
2023-04-20T19:44:58.999Z,14.10
2023-04-20T19:47:26.142Z,14.10
2023-04-20T19:49:53.214Z,14.10
2023-04-20T19:52:20.204Z,14.10
2023-04-20T19:54:47.286Z,14.20
2023-04-20T19:57:14.425Z,14.10
2023-04-20T19:59:42.493Z,14.20
2023-04-20T20:02:09.541Z,14.20
2023-04-20T20:04:37.797Z,14.20
2023-04-20T20:07:04.980Z,14.20
2023-04-20T20:09:31.870Z,14.20
2023-04-20T20:12:01.102Z,14.30
2023-04-20T20:14:28.122Z,14.30
2023-04-20T20:16:56.606Z,14.30
2023-04-20T20:19:23.918Z,14.30
2023-04-20T20:21:51.560Z,14.30
2023-04-20T20:24:18.832Z,14.30
2023-04-20T20:26:45.735Z,14.30
2023-04-20T20:29:12.667Z,14.30
2023-04-20T20:31:39.585Z,14.30
2023-04-20T20:34:08.997Z,14.30
2023-04-20T20:36:36.212Z,14.30
2023-04-20T20:39:05.076Z,14.30
2023-04-20T20:41:32.550Z,14.30
2023-04-20T20:43:59.745Z,14.30
2023-04-20T20:46:26.897Z,14.30
2023-04-20T20:48:55.179Z,14.30
2023-04-20T20:51:22.236Z,14.30
2023-04-20T20:53:49.186Z,14.30
2023-04-20T20:56:16.257Z,14.30
2023-04-20T20:58:43.220Z,14.30
2023-04-20T21:03:54.775Z,14.20
2023-04-20T21:06:21.973Z,14.20
2023-04-20T21:08:49.125Z,14.20
2023-04-20T21:11:16.059Z,14.20
2023-04-20T21:13:42.990Z,14.20
2023-04-20T21:16:10.008Z,14.20
2023-04-20T21:18:37.090Z,14.20
2023-04-20T21:21:04.220Z,14.20
2023-04-20T21:23:31.132Z,14.20
2023-04-20T21:25:58.206Z,14.20
2023-04-20T21:28:25.114Z,14.20
2023-04-20T21:30:52.021Z,14.20
2023-04-20T21:33:19.006Z,14.10
2023-04-20T21:35:46.082Z,14.20
2023-04-20T21:38:13.072Z,14.20
2023-04-20T21:40:40.055Z,14.10
2023-04-20T21:43:07.014Z,14.10
2023-04-20T21:45:35.587Z,14.10
2023-04-20T21:48:03.276Z,14.10
2023-04-20T21:50:30.222Z,14.10
2023-04-20T21:52:57.116Z,14.10
2023-04-20T21:55:24.107Z,14.10
2023-04-20T21:57:51.003Z,14.10
2023-04-20T22:00:18.215Z,14.10
2023-04-20T22:02:45.580Z,14.10
2023-04-20T22:05:13.573Z,14.10
2023-04-20T22:07:40.864Z,14.10
2023-04-20T22:10:08.508Z,14.00
2023-04-20T22:12:40.329Z,14.10
2023-04-20T22:15:09.893Z,14.10
2023-04-20T22:17:37.911Z,14.10
2023-04-20T22:20:07.944Z,14.00
2023-04-20T22:22:35.778Z,14.10
2023-04-20T22:25:04.607Z,14.10
2023-04-20T22:27:32.822Z,14.10
2023-04-20T22:30:00.520Z,14.10
2023-04-20T22:32:27.805Z,14.10
2023-04-20T22:34:54.808Z,14.00
2023-04-20T22:37:21.737Z,14.00
2023-04-20T22:39:48.920Z,13.90
2023-04-20T22:42:16.116Z,13.90
2023-04-20T22:44:43.135Z,13.90
2023-04-20T22:47:10.380Z,13.90
2023-04-20T22:49:37.564Z,13.90
2023-04-20T22:52:04.641Z,13.90
2023-04-20T22:54:31.713Z,13.90
2023-04-20T22:56:58.833Z,13.90
2023-04-20T22:59:26.004Z,14.00
2023-04-20T23:01:53.180Z,14.00
2023-04-20T23:04:20.374Z,14.00
2023-04-20T23:06:47.410Z,14.00
2023-04-20T23:09:17.528Z,14.00
2023-04-20T23:11:47.235Z,14.00
2023-04-20T23:14:14.290Z,14.10
2023-04-20T23:16:41.538Z,14.10
2023-04-20T23:19:08.530Z,14.10
2023-04-20T23:21:35.651Z,14.10
2023-04-20T23:24:02.735Z,14.10
2023-04-20T23:26:29.992Z,14.10
2023-04-20T23:28:57.117Z,14.10
2023-04-20T23:31:24.641Z,14.10
2023-04-20T23:33:51.852Z,14.10
2023-04-20T23:36:18.938Z,14.10
2023-04-20T23:38:46.007Z,14.20
2023-04-20T23:41:14.614Z,14.20
2023-04-20T23:43:42.032Z,14.20
2023-04-20T23:46:09.410Z,14.10
2023-04-20T23:48:36.697Z,14.10
2023-04-20T23:51:03.871Z,14.10
2023-04-20T23:53:30.893Z,14.10
2023-04-20T23:55:59.872Z,14.10
2023-04-20T23:58:28.091Z,14.10
